Time;durP1;ratioP1;P1;durP2;ratioP2;P2;SDS_P1;SDS_P2;PMS_P1;PMS_P2;Temp;Humidity;BMP_temperature;BMP_pressure;BME280_temperature;BME280_humidity;BME280_pressure;Samples;Min_cycle;Max_cycle;Signal;HPM_P1;HPM_P2
2022/09/20 00:06:54;;;;;;;4.20;1.90;;;;;;;8.61;81.04;100037.72;30622132;28;108812;-73
2022/09/20 00:21:54;;;;;;;3.17;1.80;;;;;;;8.73;81.42;100027.66;30620832;28;112246;-68
2022/09/20 00:36:55;;;;;;;3.30;1.60;;;;;;;8.90;81.52;100041.78;30619528;28;98491;-69
2022/09/20 00:52:00;;;;;;;3.13;1.83;;;;;;;9.07;81.24;100037.34;30617782;28;111163;-71
2022/09/20 01:07:02;;;;;;;4.60;1.70;;;;;;;9.19;81.16;100043.19;30616991;28;96652;-68
2022/09/20 01:22:09;;;;;;;4.97;1.90;;;;;;;9.10;81.10;100039.69;30615110;28;96665;-70
2022/09/20 01:37:20;;;;;;;4.67;2.00;;;;;;;8.92;80.63;100032.66;30614320;28;96723;-74
2022/09/20 01:52:42;;;;;;;3.67;2.00;;;;;;;8.81;80.83;100041.78;30613355;28;97507;-73
2022/09/20 02:08:03;;;;;;;1.90;1.33;;;;;;;8.93;81.29;100044.97;30651765;28;97648;-72
2022/09/20 02:23:15;;;;;;;3.30;1.60;;;;;;;8.80;80.58;100039.28;30651179;28;96937;-73
2022/09/20 02:38:32;;;;;;;2.43;1.33;;;;;;;8.75;81.38;100057.56;30649578;28;97419;-72
2022/09/20 02:53:48;;;;;;;5.40;2.17;;;;;;;8.70;80.82;100066.00;30647883;28;96732;-70
2022/09/20 03:09:09;;;;;;;6.37;2.20;;;;;;;8.43;81.19;100081.13;30639827;28;96756;-71
2022/09/20 03:24:30;;;;;;;3.90;1.77;;;;;;;8.12;81.08;100078.97;30625670;28;96764;-72
2022/09/20 03:39:50;;;;;;;2.70;1.70;;;;;;;8.30;82.51;100088.69;30622062;28;97345;-68
2022/09/20 03:55:10;;;;;;;3.20;1.70;;;;;;;8.71;82.21;100080.94;30620510;28;97603;-74
2022/09/20 04:10:24;;;;;;;3.77;1.60;;;;;;;8.86;82.05;100096.25;30621770;28;96605;-70
2022/09/20 04:25:36;;;;;;;5.43;2.87;;;;;;;8.92;82.04;100100.91;30616985;28;96717;-73
2022/09/20 04:40:42;;;;;;;5.07;2.70;;;;;;;8.86;82.15;100110.38;30616348;28;96755;-73
2022/09/20 04:56:27;;;;;;;6.10;4.23;;;;;;;8.96;82.31;100115.53;30615787;28;96655;-66
2022/09/20 05:11:41;;;;;;;8.33;5.37;;;;;;;9.14;82.29;100129.56;30613922;28;96724;-73
2022/09/20 05:27:02;;;;;;;7.83;4.77;;;;;;;9.26;82.34;100153.16;30614219;28;96646;-72
2022/09/20 05:42:31;;;;;;;6.03;4.20;;;;;;;9.31;81.92;100166.81;30610155;28;96843;-72
2022/09/20 05:57:43;;;;;;;9.20;4.20;;;;;;;9.42;81.69;100178.97;30610587;28;97500;-69
2022/09/20 06:12:59;;;;;;;7.23;4.80;;;;;;;9.74;81.47;100183.47;30608474;28;97444;-67
2022/09/20 06:27:59;;;;;;;12.23;4.83;;;;;;;9.92;81.70;100186.00;30608402;28;96644;-66
2022/09/20 06:42:59;;;;;;;10.40;4.75;;;;;;;10.31;80.78;100184.47;30610484;28;96727;-67
2022/09/20 06:58:00;;;;;;;6.53;3.65;;;;;;;10.49;80.69;100211.75;30624565;28;97533;-64
2022/09/20 07:13:01;;;;;;;6.05;3.70;;;;;;;10.72;80.18;100219.06;30622422;28;96747;-71
2022/09/20 07:28:02;;;;;;;6.60;4.57;;;;;;;11.09;79.16;100241.59;30623024;28;97540;-73
2022/09/20 07:43:02;;;;;;;7.10;3.72;;;;;;;11.39;78.95;100249.81;30619952;28;97193;-62
2022/09/20 07:58:02;;;;;;;5.78;2.80;;;;;;;12.71;76.99;100259.53;30618208;28;96720;-68
2022/09/20 08:13:03;;;;;;;6.80;3.72;;;;;;;14.27;75.47;100263.88;30616105;28;120472;-68
2022/09/20 08:28:03;;;;;;;4.32;2.83;;;;;;;14.41;72.79;100273.72;30616917;28;118302;-64
2022/09/20 08:43:06;;;;;;;4.82;3.20;;;;;;;15.29;72.70;100270.59;30615332;28;108183;-66
2022/09/20 08:58:11;;;;;;;3.97;2.10;;;;;;;20.53;63.81;100280.91;30613530;28;97109;-63
2022/09/20 09:13:39;;;;;;;4.00;2.20;;;;;;;17.80;60.58;100283.59;30613686;28;97420;-63
2022/09/20 09:28:39;;;;;;;5.10;2.40;;;;;;;18.35;57.96;100293.84;30613581;28;96723;-62
2022/09/20 09:43:40;;;;;;;5.72;2.22;;;;;;;17.06;58.34;100296.53;30610111;28;104964;-62
2022/09/20 09:59:09;;;;;;;6.63;2.47;;;;;;;17.92;58.35;100295.38;30608023;28;107997;-63
2022/09/20 10:14:13;;;;;;;4.47;2.10;;;;;;;28.10;40.52;100300.28;30607533;28;96838;-64
2022/09/20 10:29:32;;;;;;;4.80;2.00;;;;;;;29.85;32.61;100303.13;30627933;28;96694;-65
2022/09/20 10:44:32;;;;;;;3.10;1.63;;;;;;;25.33;34.54;100307.69;30628107;28;96726;-68
2022/09/20 11:00:00;;;;;;;5.03;1.27;;;;;;;36.99;22.41;100303.06;30626961;28;97072;-63
2022/09/20 11:15:04;;;;;;;4.47;1.60;;;;;;;39.52;18.96;100314.41;30625270;28;96757;-63
2022/09/20 11:30:13;;;;;;;1.83;0.90;;;;;;;44.89;15.04;100299.03;30622449;28;97556;-64
2022/09/20 11:45:14;;;;;;;2.57;0.90;;;;;;;32.24;23.55;100293.59;30621604;28;97657;-63
2022/09/20 12:00:16;;;;;;;4.75;1.10;;;;;;;28.70;26.36;100299.25;30620423;28;96860;-64
2022/09/20 12:15:26;;;;;;;4.10;1.27;;;;;;;23.21;33.76;100329.38;30617866;28;97125;-62
2022/09/20 12:30:28;;;;;;;2.87;1.40;;;;;;;18.93;41.17;100318.91;30616320;28;97085;-63
2022/09/20 12:45:29;;;;;;;3.90;1.50;;;;;;;17.63;46.01;100322.84;30612402;28;96894;-63
2022/09/20 13:00:40;;;;;;;5.43;2.17;;;;;;;17.55;48.66;100331.97;30614219;28;96985;-61
2022/09/20 13:15:49;;;;;;;6.30;1.87;;;;;;;16.75;50.39;100327.56;30611538;28;96782;-61
2022/09/20 13:30:49;;;;;;;2.23;1.70;;;;;;;20.67;46.99;100324.78;30611515;28;97150;-68
2022/09/20 13:45:53;;;;;;;2.30;1.30;;;;;;;20.73;43.53;100323.06;30608425;28;101544;-65
2022/09/20 14:00:57;;;;;;;3.67;1.50;;;;;;;19.81;44.06;100329.63;30606650;28;97704;-69
2022/09/20 14:15:57;;;;;;;4.63;1.60;;;;;;;18.57;46.09;100329.34;30608115;28;96739;-62
2022/09/20 14:31:12;;;;;;;2.30;1.55;;;;;;;17.95;46.75;100333.72;30605479;28;96841;-64
2022/09/20 14:46:16;;;;;;;4.40;1.17;;;;;;;17.93;46.94;100328.53;30605454;28;96898;-63
2022/09/20 15:01:24;;;;;;;4.20;1.40;;;;;;;17.72;46.93;100335.03;30607154;28;97210;-70
2022/09/20 15:16:27;;;;;;;4.00;1.40;;;;;;;16.73;48.17;100335.84;30623163;28;97455;-68
2022/09/20 15:31:27;;;;;;;2.40;1.53;;;;;;;15.99;49.62;100337.63;30622918;28;97282;-69
2022/09/20 15:46:28;;;;;;;4.70;2.10;;;;;;;15.36;51.05;100340.41;30620657;28;96782;-68
2022/09/20 16:01:31;;;;;;;1.95;1.38;;;;;;;14.75;51.77;100335.66;30620581;28;96743;-62
2022/09/20 16:16:33;;;;;;;2.70;1.57;;;;;;;14.20;53.44;100352.22;30613885;28;97584;-63
2022/09/20 16:31:41;;;;;;;8.83;3.97;;;;;;;13.70;55.33;100378.88;30613962;28;96726;-66
2022/09/20 16:46:43;;;;;;;6.30;2.77;;;;;;;12.80;57.92;100426.84;30612460;28;97381;-70
2022/09/20 17:01:44;;;;;;;6.20;2.17;;;;;;;12.21;59.59;100446.13;30612530;28;97043;-70
2022/09/20 17:16:49;;;;;;;5.53;1.80;;;;;;;12.16;60.71;100468.00;30612627;28;96975;-68
2022/09/20 17:31:51;;;;;;;6.33;2.43;;;;;;;11.58;61.84;100475.34;30609591;28;96939;-66
2022/09/20 17:46:52;;;;;;;7.77;3.30;;;;;;;11.48;63.21;100488.88;30609591;28;96664;-71
2022/09/20 18:01:53;;;;;;;5.33;2.77;;;;;;;10.97;64.08;100499.69;30608031;28;96707;-72
2022/09/20 18:16:57;;;;;;;3.97;1.70;;;;;;;10.42;65.45;100517.06;30606911;28;96679;-69
2022/09/20 18:31:59;;;;;;;3.10;2.00;;;;;;;9.97;66.28;100544.78;30607713;28;96811;-71
2022/09/20 18:47:02;;;;;;;7.07;3.43;;;;;;;9.57;67.47;100554.19;30623829;28;96848;-68
2022/09/20 19:02:34;;;;;;;3.20;2.00;;;;;;;9.32;68.86;100565.44;30627265;28;96717;-72
2022/09/20 19:17:59;;;;;;;5.57;2.40;;;;;;;9.12;69.79;100566.59;30625175;28;96791;-70
2022/09/20 19:33:01;;;;;;;6.13;2.77;;;;;;;8.96;70.74;100583.19;30622119;28;96748;-72
2022/09/20 19:48:11;;;;;;;8.83;4.07;;;;;;;8.81;71.97;100607.59;30621848;28;97180;-66
2022/09/20 20:03:13;;;;;;;10.10;4.40;;;;;;;8.68;73.04;100620.41;30620422;28;97482;-67
2022/09/20 20:18:32;;;;;;;8.13;3.93;;;;;;;8.58;73.71;100622.25;30619728;28;97546;-72
2022/09/20 20:33:32;;;;;;;4.90;3.33;;;;;;;8.52;73.96;100633.47;30619677;28;96768;-71
2022/09/20 20:48:33;;;;;;;8.43;3.55;;;;;;;8.43;74.51;100651.94;30617160;28;96729;-70
2022/09/20 21:03:34;;;;;;;6.60;3.87;;;;;;;8.30;75.70;100651.41;30615699;28;96665;-71
2022/09/20 21:18:34;;;;;;;6.63;3.85;;;;;;;8.17;75.92;100650.88;30614659;28;96798;-68
2022/09/20 21:33:38;;;;;;;8.95;4.13;;;;;;;8.09;76.12;100659.53;30613845;28;96886;-70
2022/09/20 21:48:38;;;;;;;7.40;4.20;;;;;;;8.00;76.62;100673.69;30614337;28;96691;-72
2022/09/20 22:03:50;;;;;;;6.22;3.20;;;;;;;7.88;77.26;100678.28;30612752;28;97414;-71
2022/09/20 22:18:51;;;;;;;6.03;3.30;;;;;;;7.79;77.87;100675.50;30624018;28;96724;-73
2022/09/20 22:33:54;;;;;;;7.15;3.45;;;;;;;7.70;78.28;100686.94;30631506;28;97124;-70
2022/09/20 22:48:55;;;;;;;6.10;3.40;;;;;;;7.55;78.13;100685.69;30630851;28;96994;-72
2022/09/20 23:04:04;;;;;;;8.43;3.03;;;;;;;7.41;78.66;100674.50;30629473;28;97318;-70
2022/09/20 23:19:06;;;;;;;6.03;3.53;;;;;;;7.31;78.97;100686.91;30627863;28;96765;-72
2022/09/20 23:34:08;;;;;;;8.33;2.90;;;;;;;7.24;79.94;100691.06;30624696;28;96950;-71
2022/09/20 23:49:08;;;;;;;4.70;2.93;;;;;;;7.18;79.90;100689.81;30624686;28;97441;-69
